createdAt,value
2022-08-26T06:14:10.297Z,100.00
2022-08-26T06:24:10.279Z,100.00
2022-08-26T06:34:10.883Z,100.00
2022-08-26T06:44:10.246Z,100.00
2022-08-26T06:54:10.432Z,100.00
2022-08-26T07:04:10.800Z,100.00
2022-08-26T07:14:10.512Z,100.00
2022-08-26T07:24:10.991Z,100.00
2022-08-26T07:34:10.445Z,100.00
2022-08-26T07:44:10.414Z,100.00
2022-08-26T07:54:10.377Z,100.00
2022-08-26T08:04:10.527Z,100.00
2022-08-26T08:14:11.730Z,100.00
2022-08-26T08:24:10.610Z,100.00
2022-08-26T08:34:10.274Z,100.00
2022-08-26T08:44:10.541Z,100.00
2022-08-26T08:54:10.447Z,99.00
2022-08-26T09:04:10.646Z,98.61
2022-08-26T09:14:10.645Z,96.04
2022-08-26T09:24:11.260Z,92.04
2022-08-26T09:34:10.695Z,89.39
2022-08-26T09:44:14.633Z,83.85
2022-08-26T09:54:10.558Z,80.42
2022-08-26T10:04:10.889Z,79.08
2022-08-26T10:14:10.590Z,78.33
2022-08-26T10:24:11.416Z,72.25
2022-08-26T10:34:12.467Z,68.90
2022-08-26T10:44:10.613Z,67.23
2022-08-26T10:54:10.605Z,64.13
2022-08-26T11:04:10.777Z,65.77
2022-08-26T11:14:10.785Z,66.19
2022-08-26T11:24:10.656Z,66.92
2022-08-26T11:34:11.036Z,63.95
2022-08-26T11:44:10.816Z,58.98
2022-08-26T11:54:10.665Z,56.94
2022-08-26T12:04:10.690Z,54.17
2022-08-26T12:14:10.588Z,50.80
2022-08-26T12:24:10.739Z,49.79
2022-08-26T12:34:15.873Z,51.64
2022-08-26T12:44:10.601Z,49.78
2022-08-26T12:54:10.747Z,47.75
2022-08-26T13:04:10.608Z,46.30
2022-08-26T13:14:10.656Z,46.15
2022-08-26T13:24:10.726Z,45.98
2022-08-26T13:34:10.629Z,44.83
2022-08-26T13:44:10.780Z,49.80
2022-08-26T13:54:10.754Z,52.78
2022-08-26T14:04:10.914Z,52.75
2022-08-26T14:14:10.780Z,53.84
2022-08-26T14:24:10.743Z,53.03
2022-08-26T14:34:10.799Z,52.07
2022-08-26T14:44:10.785Z,53.22
2022-08-26T14:54:10.842Z,52.38
2022-08-26T15:04:11.017Z,51.89
2022-08-26T15:14:14.829Z,51.63
2022-08-26T15:24:10.806Z,51.78
2022-08-26T15:34:14.575Z,51.07
2022-08-26T15:44:10.929Z,51.73
2022-08-26T15:54:10.918Z,51.44
2022-08-26T16:04:10.882Z,53.45
2022-08-26T16:14:10.865Z,53.46
2022-08-26T16:24:10.938Z,54.68
2022-08-26T16:34:11.052Z,55.53
2022-08-26T16:44:11.026Z,55.36
2022-08-26T16:54:10.974Z,66.30
2022-08-26T17:04:11.065Z,69.13
2022-08-26T17:14:11.032Z,71.90
2022-08-26T17:24:11.186Z,72.93
2022-08-26T17:34:11.287Z,72.60
2022-08-26T17:44:11.406Z,71.35
2022-08-26T17:54:11.295Z,72.68
2022-08-26T18:04:11.483Z,81.08
2022-08-26T18:14:11.295Z,100.00
2022-08-26T18:24:14.064Z,100.00
2022-08-26T18:34:11.269Z,100.00
2022-08-26T18:44:13.571Z,100.00
2022-08-26T18:54:11.353Z,100.00
2022-08-26T19:04:11.392Z,100.00
2022-08-26T19:14:11.320Z,100.00
